sensor_id;sensor_type;location;lat;lon;timestamp;temperature;humidity
67279;DHT22;54193;53.746;10.058;2022-10-16T00:01:29;13.06;92.57
67279;DHT22;54193;53.746;10.058;2022-10-16T00:04:15;13.05;92.34
67279;DHT22;54193;53.746;10.058;2022-10-16T00:07:01;13.05;92.18
67279;DHT22;54193;53.746;10.058;2022-10-16T00:09:47;12.95;92.20
67279;DHT22;54193;53.746;10.058;2022-10-16T00:12:32;12.94;92.21
67279;DHT22;54193;53.746;10.058;2022-10-16T00:15:18;12.91;92.24
67279;DHT22;54193;53.746;10.058;2022-10-16T00:18:04;12.89;92.27
67279;DHT22;54193;53.746;10.058;2022-10-16T00:20:51;12.88;92.27
67279;DHT22;54193;53.746;10.058;2022-10-16T00:23:37;12.83;92.37
67279;DHT22;54193;53.746;10.058;2022-10-16T00:26:23;12.87;92.45
67279;DHT22;54193;53.746;10.058;2022-10-16T00:29:09;12.87;92.32
67279;DHT22;54193;53.746;10.058;2022-10-16T00:31:54;12.88;92.35
67279;DHT22;54193;53.746;10.058;2022-10-16T00:34:40;12.91;92.33
67279;DHT22;54193;53.746;10.058;2022-10-16T00:37:26;12.87;92.22
67279;DHT22;54193;53.746;10.058;2022-10-16T00:40:11;12.88;92.21
67279;DHT22;54193;53.746;10.058;2022-10-16T00:42:57;12.88;92.15
67279;DHT22;54193;53.746;10.058;2022-10-16T00:45:43;12.89;92.04
67279;DHT22;54193;53.746;10.058;2022-10-16T00:48:29;12.89;91.82
67279;DHT22;54193;53.746;10.058;2022-10-16T00:51:18;12.96;91.43
67279;DHT22;54193;53.746;10.058;2022-10-16T00:54:08;13.02;91.00
67279;DHT22;54193;53.746;10.058;2022-10-16T00:56:56;13.04;90.85
67279;DHT22;54193;53.746;10.058;2022-10-16T00:59:43;12.99;90.50
67279;DHT22;54193;53.746;10.058;2022-10-16T01:02:29;13.01;89.96
67279;DHT22;54193;53.746;10.058;2022-10-16T01:05:14;12.95;89.71
67279;DHT22;54193;53.746;10.058;2022-10-16T01:08:05;13.01;89.01
67279;DHT22;54193;53.746;10.058;2022-10-16T01:11:01;12.98;89.09
67279;DHT22;54193;53.746;10.058;2022-10-16T01:13:54;12.85;88.99
67279;DHT22;54193;53.746;10.058;2022-10-16T01:16:50;12.89;88.53
67279;DHT22;54193;53.746;10.058;2022-10-16T01:20:11;12.92;88.42
67279;DHT22;54193;53.746;10.058;2022-10-16T01:23:17;12.89;88.65
67279;DHT22;54193;53.746;10.058;2022-10-16T01:26:44;12.84;88.47
67279;DHT22;54193;53.746;10.058;2022-10-16T01:32:57;12.81;88.16
67279;DHT22;54193;53.746;10.058;2022-10-16T01:35:53;12.88;87.62
67279;DHT22;54193;53.746;10.058;2022-10-16T01:38:40;12.85;87.77
67279;DHT22;54193;53.746;10.058;2022-10-16T01:41:32;12.78;87.87
67279;DHT22;54193;53.746;10.058;2022-10-16T01:44:22;12.76;87.85
67279;DHT22;54193;53.746;10.058;2022-10-16T01:47:11;12.81;87.72
67279;DHT22;54193;53.746;10.058;2022-10-16T01:49:59;12.76;87.68
67279;DHT22;54193;53.746;10.058;2022-10-16T01:52:49;12.71;87.61
67279;DHT22;54193;53.746;10.058;2022-10-16T01:55:40;12.68;87.71
67279;DHT22;54193;53.746;10.058;2022-10-16T01:58:30;12.65;87.81
67279;DHT22;54193;53.746;10.058;2022-10-16T02:01:22;12.57;88.11
67279;DHT22;54193;53.746;10.058;2022-10-16T02:04:29;12.60;87.90
67279;DHT22;54193;53.746;10.058;2022-10-16T02:07:17;12.57;87.89
67279;DHT22;54193;53.746;10.058;2022-10-16T02:10:03;12.56;87.92
67279;DHT22;54193;53.746;10.058;2022-10-16T02:16:06;12.44;88.19
67279;DHT22;54193;53.746;10.058;2022-10-16T02:18:52;12.41;88.43
67279;DHT22;54193;53.746;10.058;2022-10-16T02:21:43;12.37;88.52
67279;DHT22;54193;53.746;10.058;2022-10-16T02:27:54;12.37;88.29
67279;DHT22;54193;53.746;10.058;2022-10-16T02:30:47;12.34;88.47
67279;DHT22;54193;53.746;10.058;2022-10-16T02:33:34;12.25;88.54
67279;DHT22;54193;53.746;10.058;2022-10-16T02:36:21;12.26;88.51
67279;DHT22;54193;53.746;10.058;2022-10-16T02:39:07;12.20;88.45
67279;DHT22;54193;53.746;10.058;2022-10-16T02:41:53;12.23;88.36
67279;DHT22;54193;53.746;10.058;2022-10-16T02:44:39;12.28;88.23
67279;DHT22;54193;53.746;10.058;2022-10-16T02:47:25;12.20;88.11
67279;DHT22;54193;53.746;10.058;2022-10-16T02:50:10;12.25;87.97
67279;DHT22;54193;53.746;10.058;2022-10-16T02:52:56;12.28;87.37
67279;DHT22;54193;53.746;10.058;2022-10-16T02:55:42;12.16;87.72
67279;DHT22;54193;53.746;10.058;2022-10-16T02:58:27;12.15;87.81
67279;DHT22;54193;53.746;10.058;2022-10-16T03:01:13;12.25;87.32
67279;DHT22;54193;53.746;10.058;2022-10-16T03:03:59;12.15;87.53
67279;DHT22;54193;53.746;10.058;2022-10-16T03:06:45;12.12;87.59
67279;DHT22;54193;53.746;10.058;2022-10-16T03:09:30;12.03;87.69
67279;DHT22;54193;53.746;10.058;2022-10-16T03:12:16;11.98;88.00
67279;DHT22;54193;53.746;10.058;2022-10-16T03:15:02;11.86;88.30
67279;DHT22;54193;53.746;10.058;2022-10-16T03:17:48;11.89;88.47
67279;DHT22;54193;53.746;10.058;2022-10-16T03:20:34;11.84;88.41
67279;DHT22;54193;53.746;10.058;2022-10-16T03:23:20;11.79;88.43
67279;DHT22;54193;53.746;10.058;2022-10-16T03:26:05;11.84;88.56
67279;DHT22;54193;53.746;10.058;2022-10-16T03:28:51;11.85;88.43
67279;DHT22;54193;53.746;10.058;2022-10-16T03:31:36;11.89;88.10
67279;DHT22;54193;53.746;10.058;2022-10-16T03:34:22;11.89;88.04
67279;DHT22;54193;53.746;10.058;2022-10-16T03:37:08;11.86;88.13
67279;DHT22;54193;53.746;10.058;2022-10-16T03:39:53;11.85;88.22
67279;DHT22;54193;53.746;10.058;2022-10-16T03:42:39;11.78;88.50
67279;DHT22;54193;53.746;10.058;2022-10-16T03:45:24;11.81;88.47
67279;DHT22;54193;53.746;10.058;2022-10-16T03:48:10;11.91;88.11
67279;DHT22;54193;53.746;10.058;2022-10-16T03:50:56;11.86;88.27
67279;DHT22;54193;53.746;10.058;2022-10-16T03:53:41;11.86;88.13
67279;DHT22;54193;53.746;10.058;2022-10-16T03:56:27;11.88;88.11
67279;DHT22;54193;53.746;10.058;2022-10-16T03:59:13;11.81;88.36
67279;DHT22;54193;53.746;10.058;2022-10-16T04:01:58;11.92;88.00
67279;DHT22;54193;53.746;10.058;2022-10-16T04:04:44;11.84;88.15
67279;DHT22;54193;53.746;10.058;2022-10-16T04:07:29;11.85;88.06
67279;DHT22;54193;53.746;10.058;2022-10-16T04:10:15;11.79;88.18
67279;DHT22;54193;53.746;10.058;2022-10-16T04:13:01;11.77;88.54
67279;DHT22;54193;53.746;10.058;2022-10-16T04:15:47;11.81;88.32
67279;DHT22;54193;53.746;10.058;2022-10-16T04:18:32;11.85;88.18
67279;DHT22;54193;53.746;10.058;2022-10-16T04:21:18;11.89;87.81
67279;DHT22;54193;53.746;10.058;2022-10-16T04:24:04;11.84;87.88
67279;DHT22;54193;53.746;10.058;2022-10-16T04:26:49;11.86;87.77
67279;DHT22;54193;53.746;10.058;2022-10-16T04:29:35;11.85;87.79
67279;DHT22;54193;53.746;10.058;2022-10-16T04:32:20;11.86;87.97
67279;DHT22;54193;53.746;10.058;2022-10-16T04:35:07;11.85;87.89
67279;DHT22;54193;53.746;10.058;2022-10-16T04:37:52;11.88;87.75
67279;DHT22;54193;53.746;10.058;2022-10-16T04:40:38;11.84;87.73
67279;DHT22;54193;53.746;10.058;2022-10-16T04:43:24;11.85;87.76
67279;DHT22;54193;53.746;10.058;2022-10-16T04:46:09;11.82;87.56
67279;DHT22;54193;53.746;10.058;2022-10-16T04:48:55;11.78;87.68
67279;DHT22;54193;53.746;10.058;2022-10-16T04:51:41;11.79;87.76
67279;DHT22;54193;53.746;10.058;2022-10-16T04:54:26;11.85;87.62
67279;DHT22;54193;53.746;10.058;2022-10-16T04:57:12;11.75;87.75
67279;DHT22;54193;53.746;10.058;2022-10-16T04:59:58;11.75;87.61
67279;DHT22;54193;53.746;10.058;2022-10-16T05:02:43;11.71;87.64
67279;DHT22;54193;53.746;10.058;2022-10-16T05:05:29;11.75;87.71
67279;DHT22;54193;53.746;10.058;2022-10-16T05:08:16;11.67;87.78
67279;DHT22;54193;53.746;10.058;2022-10-16T05:11:01;11.77;87.79
67279;DHT22;54193;53.746;10.058;2022-10-16T05:13:47;11.79;87.52
67279;DHT22;54193;53.746;10.058;2022-10-16T05:16:33;11.81;87.46
67279;DHT22;54193;53.746;10.058;2022-10-16T05:19:18;11.78;87.56
67279;DHT22;54193;53.746;10.058;2022-10-16T05:22:04;11.84;87.67
67279;DHT22;54193;53.746;10.058;2022-10-16T05:24:49;11.84;87.76
67279;DHT22;54193;53.746;10.058;2022-10-16T05:27:35;11.98;87.26
67279;DHT22;54193;53.746;10.058;2022-10-16T05:30:21;12.03;87.25
67279;DHT22;54193;53.746;10.058;2022-10-16T05:33:06;12.02;87.36
67279;DHT22;54193;53.746;10.058;2022-10-16T05:35:52;12.06;87.31
67279;DHT22;54193;53.746;10.058;2022-10-16T05:38:37;12.15;87.20
67279;DHT22;54193;53.746;10.058;2022-10-16T05:41:23;12.13;87.19
67279;DHT22;54193;53.746;10.058;2022-10-16T05:44:11;12.20;87.26
67279;DHT22;54193;53.746;10.058;2022-10-16T05:46:56;12.29;86.97
67279;DHT22;54193;53.746;10.058;2022-10-16T05:49:42;12.29;87.03
67279;DHT22;54193;53.746;10.058;2022-10-16T05:52:28;12.28;87.15
67279;DHT22;54193;53.746;10.058;2022-10-16T05:55:13;12.25;87.35
67279;DHT22;54193;53.746;10.058;2022-10-16T05:57:59;12.22;87.50
67279;DHT22;54193;53.746;10.058;2022-10-16T06:00:44;12.19;87.62
67279;DHT22;54193;53.746;10.058;2022-10-16T06:03:30;12.22;87.69
67279;DHT22;54193;53.746;10.058;2022-10-16T06:06:18;12.23;87.66
67279;DHT22;54193;53.746;10.058;2022-10-16T06:09:04;12.28;87.55
67279;DHT22;54193;53.746;10.058;2022-10-16T06:11:50;12.25;87.67
67279;DHT22;54193;53.746;10.058;2022-10-16T06:14:36;12.23;87.75
67279;DHT22;54193;53.746;10.058;2022-10-16T06:17:21;12.23;87.95
67279;DHT22;54193;53.746;10.058;2022-10-16T06:20:07;12.19;88.04
67279;DHT22;54193;53.746;10.058;2022-10-16T06:22:53;12.25;88.15
67279;DHT22;54193;53.746;10.058;2022-10-16T06:25:43;12.20;88.28
67279;DHT22;54193;53.746;10.058;2022-10-16T06:28:29;12.22;88.29
67279;DHT22;54193;53.746;10.058;2022-10-16T06:31:15;12.20;88.25
67279;DHT22;54193;53.746;10.058;2022-10-16T06:34:01;12.28;88.07
67279;DHT22;54193;53.746;10.058;2022-10-16T06:36:48;12.30;87.99
67279;DHT22;54193;53.746;10.058;2022-10-16T06:39:34;12.30;87.95
67279;DHT22;54193;53.746;10.058;2022-10-16T06:42:19;12.33;88.10
67279;DHT22;54193;53.746;10.058;2022-10-16T06:45:05;12.33;88.16
67279;DHT22;54193;53.746;10.058;2022-10-16T06:47:51;12.44;87.82
67279;DHT22;54193;53.746;10.058;2022-10-16T06:50:37;12.51;87.77
67279;DHT22;54193;53.746;10.058;2022-10-16T06:53:23;12.61;87.71
67279;DHT22;54193;53.746;10.058;2022-10-16T06:56:14;12.71;87.35
67279;DHT22;54193;53.746;10.058;2022-10-16T06:59:00;12.92;86.89
67279;DHT22;54193;53.746;10.058;2022-10-16T07:01:46;13.06;86.32
67279;DHT22;54193;53.746;10.058;2022-10-16T07:04:32;13.20;86.13
67279;DHT22;54193;53.746;10.058;2022-10-16T07:07:17;13.43;85.31
67279;DHT22;54193;53.746;10.058;2022-10-16T07:10:03;13.70;84.48
67279;DHT22;54193;53.746;10.058;2022-10-16T07:12:49;14.02;83.92
67279;DHT22;54193;53.746;10.058;2022-10-16T07:15:35;14.18;82.90
67279;DHT22;54193;53.746;10.058;2022-10-16T07:18:21;14.19;82.88
67279;DHT22;54193;53.746;10.058;2022-10-16T07:21:14;14.22;82.81
67279;DHT22;54193;53.746;10.058;2022-10-16T07:24:00;14.39;82.49
67279;DHT22;54193;53.746;10.058;2022-10-16T07:26:46;14.57;82.21
67279;DHT22;54193;53.746;10.058;2022-10-16T07:29:32;14.74;81.59
67279;DHT22;54193;53.746;10.058;2022-10-16T07:32:18;14.72;81.39
67279;DHT22;54193;53.746;10.058;2022-10-16T07:35:04;14.70;81.68
67279;DHT22;54193;53.746;10.058;2022-10-16T07:37:49;14.77;81.65
67279;DHT22;54193;53.746;10.058;2022-10-16T07:40:35;14.80;81.12
67279;DHT22;54193;53.746;10.058;2022-10-16T07:43:21;14.70;81.62
67279;DHT22;54193;53.746;10.058;2022-10-16T07:46:06;14.70;81.82
67279;DHT22;54193;53.746;10.058;2022-10-16T07:48:52;14.97;81.24
67279;DHT22;54193;53.746;10.058;2022-10-16T07:51:38;14.94;80.35
67279;DHT22;54193;53.746;10.058;2022-10-16T07:54:24;15.22;80.56
67279;DHT22;54193;53.746;10.058;2022-10-16T07:57:10;15.19;80.74
67279;DHT22;54193;53.746;10.058;2022-10-16T07:59:55;15.02;81.06
67279;DHT22;54193;53.746;10.058;2022-10-16T08:02:41;15.40;79.11
67279;DHT22;54193;53.746;10.058;2022-10-16T08:05:28;15.60;79.03
67279;DHT22;54193;53.746;10.058;2022-10-16T08:08:15;15.45;79.55
67279;DHT22;54193;53.746;10.058;2022-10-16T08:11:01;15.49;79.11
67279;DHT22;54193;53.746;10.058;2022-10-16T08:13:49;15.38;79.25
67279;DHT22;54193;53.746;10.058;2022-10-16T08:16:34;15.12;81.15
67279;DHT22;54193;53.746;10.058;2022-10-16T08:19:20;15.05;80.96
67279;DHT22;54193;53.746;10.058;2022-10-16T08:22:05;15.50;79.85
67279;DHT22;54193;53.746;10.058;2022-10-16T08:24:51;15.89;78.40
67279;DHT22;54193;53.746;10.058;2022-10-16T08:27:38;15.82;78.43
67279;DHT22;54193;53.746;10.058;2022-10-16T08:30:24;16.17;78.28
67279;DHT22;54193;53.746;10.058;2022-10-16T08:33:10;16.48;77.16
67279;DHT22;54193;53.746;10.058;2022-10-16T08:35:55;16.38;76.65
67279;DHT22;54193;53.746;10.058;2022-10-16T08:38:41;16.35;76.78
67279;DHT22;54193;53.746;10.058;2022-10-16T08:45:02;16.87;75.99
67279;DHT22;54193;53.746;10.058;2022-10-16T08:47:58;17.59;72.89
67279;DHT22;54193;53.746;10.058;2022-10-16T08:50:47;17.78;72.46
67279;DHT22;54193;53.746;10.058;2022-10-16T08:53:38;17.82;73.11
67279;DHT22;54193;53.746;10.058;2022-10-16T08:56:27;17.41;72.25
67279;DHT22;54193;53.746;10.058;2022-10-16T08:59:13;17.73;71.93
67279;DHT22;54193;53.746;10.058;2022-10-16T09:02:01;17.93;72.29
67279;DHT22;54193;53.746;10.058;2022-10-16T09:04:56;17.93;70.74
67279;DHT22;54193;53.746;10.058;2022-10-16T09:14:17;18.40;70.61
67279;DHT22;54193;53.746;10.058;2022-10-16T09:17:16;18.24;72.77
67279;DHT22;54193;53.746;10.058;2022-10-16T09:20:29;18.86;69.37
67279;DHT22;54193;53.746;10.058;2022-10-16T09:23:27;19.58;68.29
67279;DHT22;54193;53.746;10.058;2022-10-16T09:26:15;20.79;66.00
67279;DHT22;54193;53.746;10.058;2022-10-16T09:29:02;19.23;68.90
67279;DHT22;54193;53.746;10.058;2022-10-16T09:31:48;20.03;67.44
67279;DHT22;54193;53.746;10.058;2022-10-16T09:34:36;19.38;67.63
67279;DHT22;54193;53.746;10.058;2022-10-16T09:37:23;18.93;69.81
67279;DHT22;54193;53.746;10.058;2022-10-16T09:40:59;19.23;70.12
67279;DHT22;54193;53.746;10.058;2022-10-16T09:43:28;17.93;73.38
67279;DHT22;54193;53.746;10.058;2022-10-16T09:46:34;17.99;73.25
67279;DHT22;54193;53.746;10.058;2022-10-16T09:49:23;17.49;74.21
67279;DHT22;54193;53.746;10.058;2022-10-16T09:52:13;17.25;74.53
67279;DHT22;54193;53.746;10.058;2022-10-16T09:55:12;17.04;74.03
67279;DHT22;54193;53.746;10.058;2022-10-16T09:57:58;16.91;74.40
67279;DHT22;54193;53.746;10.058;2022-10-16T10:00:52;16.93;74.51
67279;DHT22;54193;53.746;10.058;2022-10-16T10:03:41;16.90;74.70
67279;DHT22;54193;53.746;10.058;2022-10-16T10:06:30;16.80;74.44
67279;DHT22;54193;53.746;10.058;2022-10-16T10:09:26;17.07;74.27
67279;DHT22;54193;53.746;10.058;2022-10-16T10:12:25;17.04;74.70
67279;DHT22;54193;53.746;10.058;2022-10-16T10:15:13;16.99;73.94
67279;DHT22;54193;53.746;10.058;2022-10-16T10:18:16;16.90;75.41
67279;DHT22;54193;53.746;10.058;2022-10-16T10:21:04;16.97;74.91
67279;DHT22;54193;53.746;10.058;2022-10-16T10:23:57;17.18;74.03
67279;DHT22;54193;53.746;10.058;2022-10-16T10:29:53;17.13;74.25
67279;DHT22;54193;53.746;10.058;2022-10-16T10:36:10;17.21;74.22
67279;DHT22;54193;53.746;10.058;2022-10-16T10:39:00;17.20;73.49
67279;DHT22;54193;53.746;10.058;2022-10-16T10:50:48;17.14;73.33
67279;DHT22;54193;53.746;10.058;2022-10-16T10:56:50;16.81;73.90
67279;DHT22;54193;53.746;10.058;2022-10-16T11:05:44;17.18;74.79
67279;DHT22;54193;53.746;10.058;2022-10-16T11:08:37;17.46;74.85
67279;DHT22;54193;53.746;10.058;2022-10-16T11:14:21;17.55;73.93
67279;DHT22;54193;53.746;10.058;2022-10-16T11:17:17;17.58;73.48
67279;DHT22;54193;53.746;10.058;2022-10-16T11:26:15;17.79;72.48
67279;DHT22;54193;53.746;10.058;2022-10-16T11:29:03;17.89;71.17
67279;DHT22;54193;53.746;10.058;2022-10-16T11:31:56;17.94;70.31
67279;DHT22;54193;53.746;10.058;2022-10-16T11:34:52;17.87;69.91
67279;DHT22;54193;53.746;10.058;2022-10-16T11:37:41;17.96;70.44
67279;DHT22;54193;53.746;10.058;2022-10-16T11:40:31;18.11;70.93
67279;DHT22;54193;53.746;10.058;2022-10-16T11:43:25;17.78;70.61
67279;DHT22;54193;53.746;10.058;2022-10-16T11:46:20;17.69;71.24
67279;DHT22;54193;53.746;10.058;2022-10-16T11:49:12;17.38;71.03
67279;DHT22;54193;53.746;10.058;2022-10-16T11:52:23;17.27;72.59
67279;DHT22;54193;53.746;10.058;2022-10-16T11:55:17;17.07;71.49
67279;DHT22;54193;53.746;10.058;2022-10-16T11:58:26;17.02;72.02
67279;DHT22;54193;53.746;10.058;2022-10-16T12:01:26;17.03;72.43
67279;DHT22;54193;53.746;10.058;2022-10-16T12:04:23;17.17;71.57
67279;DHT22;54193;53.746;10.058;2022-10-16T12:07:17;17.11;71.41
67279;DHT22;54193;53.746;10.058;2022-10-16T12:10:19;17.27;71.90
67279;DHT22;54193;53.746;10.058;2022-10-16T12:13:37;17.25;71.98
67279;DHT22;54193;53.746;10.058;2022-10-16T12:16:23;17.36;72.98
67279;DHT22;54193;53.746;10.058;2022-10-16T12:19:15;17.32;71.08
67279;DHT22;54193;53.746;10.058;2022-10-16T12:22:01;17.32;71.00
67279;DHT22;54193;53.746;10.058;2022-10-16T12:24:51;17.28;72.46
67279;DHT22;54193;53.746;10.058;2022-10-16T12:27:37;17.27;72.48
67279;DHT22;54193;53.746;10.058;2022-10-16T12:30:24;17.03;71.71
67279;DHT22;54193;53.746;10.058;2022-10-16T12:33:30;16.77;71.29
67279;DHT22;54193;53.746;10.058;2022-10-16T12:36:28;16.55;72.31
67279;DHT22;54193;53.746;10.058;2022-10-16T12:39:22;16.62;73.05
67279;DHT22;54193;53.746;10.058;2022-10-16T12:42:30;16.83;72.05
67279;DHT22;54193;53.746;10.058;2022-10-16T12:48:20;17.30;69.62
67279;DHT22;54193;53.746;10.058;2022-10-16T12:54:14;17.49;69.54
67279;DHT22;54193;53.746;10.058;2022-10-16T12:57:13;17.52;67.71
67279;DHT22;54193;53.746;10.058;2022-10-16T13:00:21;17.59;66.18
67279;DHT22;54193;53.746;10.058;2022-10-16T13:06:48;17.68;67.27
67279;DHT22;54193;53.746;10.058;2022-10-16T13:09:47;17.68;65.46
67279;DHT22;54193;53.746;10.058;2022-10-16T13:12:50;17.65;65.79
67279;DHT22;54193;53.746;10.058;2022-10-16T13:21:39;17.73;65.64
67279;DHT22;54193;53.746;10.058;2022-10-16T13:27:56;17.53;65.54
67279;DHT22;54193;53.746;10.058;2022-10-16T13:30:44;17.51;67.29
67279;DHT22;54193;53.746;10.058;2022-10-16T13:33:41;17.58;66.92
67279;DHT22;54193;53.746;10.058;2022-10-16T13:36:42;17.65;66.92
67279;DHT22;54193;53.746;10.058;2022-10-16T13:39:30;17.46;66.42
67279;DHT22;54193;53.746;10.058;2022-10-16T13:45:21;17.30;64.93
67279;DHT22;54193;53.746;10.058;2022-10-16T13:48:10;17.18;65.14
67279;DHT22;54193;53.746;10.058;2022-10-16T13:51:13;17.06;66.56
67279;DHT22;54193;53.746;10.058;2022-10-16T13:53:59;16.91;67.04
67279;DHT22;54193;53.746;10.058;2022-10-16T13:56:45;16.80;68.19
67279;DHT22;54193;53.746;10.058;2022-10-16T13:59:36;16.91;67.27
67279;DHT22;54193;53.746;10.058;2022-10-16T14:02:37;16.83;67.41
67279;DHT22;54193;53.746;10.058;2022-10-16T14:05:23;16.86;66.90
67279;DHT22;54193;53.746;10.058;2022-10-16T14:08:11;16.93;67.09
67279;DHT22;54193;53.746;10.058;2022-10-16T14:10:59;17.00;67.95
67279;DHT22;54193;53.746;10.058;2022-10-16T14:13:46;17.13;68.21
67279;DHT22;54193;53.746;10.058;2022-10-16T14:16:32;17.28;67.02
67279;DHT22;54193;53.746;10.058;2022-10-16T14:19:23;17.48;67.31
67279;DHT22;54193;53.746;10.058;2022-10-16T14:22:28;17.35;67.18
67279;DHT22;54193;53.746;10.058;2022-10-16T14:28:21;16.94;69.33
67279;DHT22;54193;53.746;10.058;2022-10-16T14:34:23;16.84;67.53
67279;DHT22;54193;53.746;10.058;2022-10-16T14:37:23;16.76;67.61
67279;DHT22;54193;53.746;10.058;2022-10-16T14:40:14;16.73;68.69
67279;DHT22;54193;53.746;10.058;2022-10-16T14:43:01;16.59;68.92
67279;DHT22;54193;53.746;10.058;2022-10-16T14:45:52;16.56;68.82
67279;DHT22;54193;53.746;10.058;2022-10-16T14:48:42;16.53;69.12
67279;DHT22;54193;53.746;10.058;2022-10-16T14:51:28;16.49;69.61
67279;DHT22;54193;53.746;10.058;2022-10-16T14:54:16;16.45;69.10
67279;DHT22;54193;53.746;10.058;2022-10-16T14:57:02;16.39;68.81
67279;DHT22;54193;53.746;10.058;2022-10-16T14:59:49;16.33;69.18
67279;DHT22;54193;53.746;10.058;2022-10-16T15:02:36;16.24;70.49
67279;DHT22;54193;53.746;10.058;2022-10-16T15:05:24;16.14;70.16
67279;DHT22;54193;53.746;10.058;2022-10-16T15:08:11;16.08;70.72
67279;DHT22;54193;53.746;10.058;2022-10-16T15:10:57;16.00;70.96
67279;DHT22;54193;53.746;10.058;2022-10-16T15:13:43;15.93;71.71
67279;DHT22;54193;53.746;10.058;2022-10-16T15:16:29;16.01;71.51
67279;DHT22;54193;53.746;10.058;2022-10-16T15:19:15;16.08;70.89
67279;DHT22;54193;53.746;10.058;2022-10-16T15:22:01;15.94;71.33
67279;DHT22;54193;53.746;10.058;2022-10-16T15:24:46;15.83;72.44
67279;DHT22;54193;53.746;10.058;2022-10-16T15:27:32;15.70;71.75
67279;DHT22;54193;53.746;10.058;2022-10-16T15:30:26;15.65;71.96
67279;DHT22;54193;53.746;10.058;2022-10-16T15:33:17;15.50;72.08
67279;DHT22;54193;53.746;10.058;2022-10-16T15:36:03;15.34;72.90
67279;DHT22;54193;53.746;10.058;2022-10-16T15:38:49;15.15;73.52
67279;DHT22;54193;53.746;10.058;2022-10-16T15:41:34;15.14;73.68
67279;DHT22;54193;53.746;10.058;2022-10-16T15:44:20;15.02;74.15
67279;DHT22;54193;53.746;10.058;2022-10-16T15:47:08;14.85;74.99
67279;DHT22;54193;53.746;10.058;2022-10-16T15:49:54;14.79;75.16
67279;DHT22;54193;53.746;10.058;2022-10-16T15:52:40;14.67;74.98
67279;DHT22;54193;53.746;10.058;2022-10-16T15:55:27;14.55;75.56
67279;DHT22;54193;53.746;10.058;2022-10-16T15:58:13;14.39;76.12
67279;DHT22;54193;53.746;10.058;2022-10-16T16:00:59;14.32;76.17
67279;DHT22;54193;53.746;10.058;2022-10-16T16:03:53;14.30;76.34
67279;DHT22;54193;53.746;10.058;2022-10-16T16:06:38;14.19;76.35
67279;DHT22;54193;53.746;10.058;2022-10-16T16:09:29;14.08;76.30
67279;DHT22;54193;53.746;10.058;2022-10-16T16:12:15;13.97;76.44
67279;DHT22;54193;53.746;10.058;2022-10-16T16:15:01;13.84;76.63
67279;DHT22;54193;53.746;10.058;2022-10-16T16:17:47;13.80;76.65
67279;DHT22;54193;53.746;10.058;2022-10-16T16:20:32;13.70;76.61
67279;DHT22;54193;53.746;10.058;2022-10-16T16:23:18;13.54;77.14
67279;DHT22;54193;53.746;10.058;2022-10-16T16:26:22;13.36;77.69
67279;DHT22;54193;53.746;10.058;2022-10-16T16:29:12;13.19;78.72
67279;DHT22;54193;53.746;10.058;2022-10-16T16:31:59;13.09;79.47
67279;DHT22;54193;53.746;10.058;2022-10-16T16:34:45;13.04;79.36
67279;DHT22;54193;53.746;10.058;2022-10-16T16:37:30;12.81;80.32
67279;DHT22;54193;53.746;10.058;2022-10-16T16:40:16;12.67;81.06
67279;DHT22;54193;53.746;10.058;2022-10-16T16:43:02;12.56;82.08
67279;DHT22;54193;53.746;10.058;2022-10-16T16:45:49;12.47;82.49
67279;DHT22;54193;53.746;10.058;2022-10-16T16:48:35;12.41;82.69
67279;DHT22;54193;53.746;10.058;2022-10-16T16:51:21;12.28;83.19
67279;DHT22;54193;53.746;10.058;2022-10-16T16:54:06;12.16;83.56
67279;DHT22;54193;53.746;10.058;2022-10-16T16:56:53;12.09;84.01
67279;DHT22;54193;53.746;10.058;2022-10-16T16:59:38;12.08;84.15
67279;DHT22;54193;53.746;10.058;2022-10-16T17:02:24;11.99;84.41
67279;DHT22;54193;53.746;10.058;2022-10-16T17:05:10;11.96;84.73
67279;DHT22;54193;53.746;10.058;2022-10-16T17:07:56;11.91;84.95
67279;DHT22;54193;53.746;10.058;2022-10-16T17:10:43;11.94;85.05
67279;DHT22;54193;53.746;10.058;2022-10-16T17:13:31;11.92;85.05
67279;DHT22;54193;53.746;10.058;2022-10-16T17:16:21;11.88;84.95
67279;DHT22;54193;53.746;10.058;2022-10-16T17:19:09;11.84;85.03
67279;DHT22;54193;53.746;10.058;2022-10-16T17:21:55;11.79;85.25
67279;DHT22;54193;53.746;10.058;2022-10-16T17:24:41;11.71;85.38
67279;DHT22;54193;53.746;10.058;2022-10-16T17:27:27;11.64;85.40
67279;DHT22;54193;53.746;10.058;2022-10-16T17:30:12;11.56;85.76
67279;DHT22;54193;53.746;10.058;2022-10-16T17:32:58;11.47;86.09
67279;DHT22;54193;53.746;10.058;2022-10-16T17:35:45;11.48;86.23
67279;DHT22;54193;53.746;10.058;2022-10-16T17:38:31;11.50;86.30
67279;DHT22;54193;53.746;10.058;2022-10-16T17:41:22;11.38;86.19
67279;DHT22;54193;53.746;10.058;2022-10-16T17:44:09;11.27;86.33
67279;DHT22;54193;53.746;10.058;2022-10-16T17:46:57;11.15;86.59
67279;DHT22;54193;53.746;10.058;2022-10-16T17:49:43;11.05;87.25
67279;DHT22;54193;53.746;10.058;2022-10-16T17:52:28;10.89;87.38
67279;DHT22;54193;53.746;10.058;2022-10-16T17:55:14;10.91;87.50
67279;DHT22;54193;53.746;10.058;2022-10-16T17:58:01;10.83;87.69
67279;DHT22;54193;53.746;10.058;2022-10-16T18:00:46;10.83;87.89
67279;DHT22;54193;53.746;10.058;2022-10-16T18:03:32;10.79;87.99
67279;DHT22;54193;53.746;10.058;2022-10-16T18:06:18;10.81;88.09
67279;DHT22;54193;53.746;10.058;2022-10-16T18:09:05;10.69;88.32
67279;DHT22;54193;53.746;10.058;2022-10-16T18:11:53;11.23;86.12
67279;DHT22;54193;53.746;10.058;2022-10-16T18:14:44;10.99;86.71
67279;DHT22;54193;53.746;10.058;2022-10-16T18:17:30;10.95;86.80
67279;DHT22;54193;53.746;10.058;2022-10-16T18:20:18;10.83;87.62
67279;DHT22;54193;53.746;10.058;2022-10-16T18:23:03;10.72;87.72
67279;DHT22;54193;53.746;10.058;2022-10-16T18:25:49;10.69;88.28
67279;DHT22;54193;53.746;10.058;2022-10-16T18:28:35;10.72;88.03
67279;DHT22;54193;53.746;10.058;2022-10-16T18:31:21;10.68;88.42
67279;DHT22;54193;53.746;10.058;2022-10-16T18:34:07;10.61;88.36
67279;DHT22;54193;53.746;10.058;2022-10-16T18:36:53;10.57;88.50
67279;DHT22;54193;53.746;10.058;2022-10-16T18:39:39;10.54;88.75
67279;DHT22;54193;53.746;10.058;2022-10-16T18:42:25;10.55;88.93
67279;DHT22;54193;53.746;10.058;2022-10-16T18:45:10;10.51;88.99
67279;DHT22;54193;53.746;10.058;2022-10-16T18:47:56;10.47;88.94
67279;DHT22;54193;53.746;10.058;2022-10-16T18:50:42;10.57;89.13